createdAt,value
2022-11-22T00:01:19.875Z,15.53
2022-11-22T00:03:48.030Z,17.07
2022-11-22T00:06:16.137Z,15.13
2022-11-22T00:08:44.235Z,15.57
2022-11-22T00:11:13.751Z,16.20
2022-11-22T00:13:41.831Z,17.10
2022-11-22T00:16:09.938Z,19.40
2022-11-22T00:18:38.164Z,15.37
2022-11-22T00:21:08.031Z,15.80
2022-11-22T00:23:36.479Z,12.87
2022-11-22T00:26:04.665Z,15.37
2022-11-22T00:28:34.210Z,16.37
2022-11-22T00:31:02.388Z,15.37
2022-11-22T00:33:30.555Z,16.53
2022-11-22T00:35:58.702Z,14.63
2022-11-22T00:38:26.913Z,11.23
2022-11-22T00:40:55.001Z,16.83
2022-11-22T00:43:23.170Z,15.97
2022-11-22T00:45:52.679Z,14.90
2022-11-22T00:48:20.795Z,19.43
2022-11-22T00:50:50.486Z,15.90
2022-11-22T00:53:18.688Z,16.43
2022-11-22T00:55:47.057Z,17.20
2022-11-22T00:58:15.221Z,17.50
2022-11-22T01:00:43.592Z,17.50
2022-11-22T01:03:14.055Z,15.80
2022-11-22T01:05:42.209Z,16.37
2022-11-22T01:08:10.734Z,17.37
2022-11-22T01:10:39.329Z,14.73
2022-11-22T01:13:07.790Z,13.57
2022-11-22T01:15:37.152Z,17.73
2022-11-22T01:18:05.534Z,14.57
2022-11-22T01:20:35.049Z,16.33
2022-11-22T01:23:03.222Z,15.20
2022-11-22T01:25:31.422Z,18.53
2022-11-22T01:27:59.547Z,15.73
2022-11-22T01:30:27.767Z,15.10
2022-11-22T01:32:55.967Z,14.77
2022-11-22T01:35:24.085Z,17.03
2022-11-22T01:37:53.619Z,15.70
2022-11-22T01:40:22.106Z,19.03
2022-11-22T01:42:52.797Z,15.87
2022-11-22T01:45:48.138Z,11.97
2022-11-22T01:48:27.669Z,20.30
2022-11-22T01:51:01.447Z,22.27
2022-11-22T01:53:34.739Z,18.13
2022-11-22T01:56:05.644Z,17.67
2022-11-22T01:58:37.783Z,16.30
2022-11-22T02:01:06.203Z,14.20
2022-11-22T02:03:44.264Z,17.27
2022-11-22T02:06:12.575Z,17.63
2022-11-22T02:08:48.387Z,17.00
2022-11-22T02:11:18.657Z,15.03
2022-11-22T02:13:46.970Z,18.63
2022-11-22T02:16:15.536Z,16.83
2022-11-22T02:18:43.671Z,15.93
2022-11-22T02:21:12.096Z,15.87
2022-11-22T02:23:51.039Z,14.43
2022-11-22T02:26:20.618Z,15.13
2022-11-22T02:28:49.832Z,13.43
2022-11-22T02:31:39.525Z,18.07
2022-11-22T02:34:08.121Z,13.23
2022-11-22T02:36:39.902Z,13.07
2022-11-22T02:39:10.085Z,16.73
2022-11-22T02:41:41.386Z,13.23
2022-11-22T02:44:11.772Z,17.97
2022-11-22T02:46:49.022Z,16.63
2022-11-22T02:49:19.288Z,16.33
2022-11-22T02:51:48.129Z,16.03
2022-11-22T02:54:19.174Z,16.63
2022-11-22T02:56:48.930Z,16.87
2022-11-22T02:59:17.205Z,17.20
2022-11-22T03:01:47.209Z,19.37
2022-11-22T03:04:24.535Z,18.03
2022-11-22T03:06:54.908Z,15.47
2022-11-22T03:09:23.202Z,16.27
2022-11-22T03:11:53.447Z,16.73
2022-11-22T03:14:22.142Z,16.90
2022-11-22T03:16:50.626Z,16.83
2022-11-22T03:19:18.802Z,15.23
2022-11-22T03:21:47.092Z,17.93
2022-11-22T03:24:15.236Z,23.63
2022-11-22T03:26:46.979Z,18.17
2022-11-22T03:29:17.327Z,17.23
2022-11-22T03:31:48.637Z,16.83
2022-11-22T03:34:17.302Z,14.67
2022-11-22T03:36:45.456Z,18.10
2022-11-22T03:39:13.861Z,16.00
2022-11-22T03:41:42.058Z,19.60
2022-11-22T03:44:10.177Z,15.30
2022-11-22T03:46:39.669Z,16.10
2022-11-22T03:49:07.807Z,15.43
2022-11-22T03:51:35.887Z,20.30
2022-11-22T03:54:03.999Z,20.07
2022-11-22T03:56:32.307Z,18.77
2022-11-22T03:59:00.522Z,18.07
2022-11-22T04:01:28.900Z,19.23
2022-11-22T04:03:58.430Z,19.40
2022-11-22T04:06:26.504Z,16.60
2022-11-22T04:08:54.714Z,18.60
2022-11-22T04:11:22.939Z,17.30
2022-11-22T04:14:08.311Z,19.03
2022-11-22T04:16:37.841Z,18.20
2022-11-22T04:19:07.310Z,16.13
2022-11-22T04:21:34.467Z,22.83
2022-11-22T04:24:21.287Z,19.33
2022-11-22T04:26:50.063Z,18.70
2022-11-22T04:29:20.024Z,20.23
2022-11-22T04:32:06.479Z,22.03
2022-11-22T04:34:36.324Z,21.07
2022-11-22T04:37:06.077Z,22.67
2022-11-22T04:39:34.592Z,21.13
2022-11-22T04:42:19.994Z,22.70
2022-11-22T04:44:48.384Z,21.57
2022-11-22T04:47:39.759Z,24.27
2022-11-22T04:50:24.364Z,22.20
2022-11-22T04:52:54.961Z,19.30
2022-11-22T04:55:23.373Z,20.50
2022-11-22T04:57:56.068Z,26.27
2022-11-22T05:00:28.114Z,22.03
2022-11-22T05:02:56.419Z,24.43
2022-11-22T05:05:26.571Z,22.80
2022-11-22T05:07:54.711Z,23.83
2022-11-22T05:10:26.814Z,23.93
2022-11-22T05:12:55.426Z,19.10
2022-11-22T05:15:23.590Z,21.67
2022-11-22T05:17:51.690Z,23.13
2022-11-22T05:20:19.983Z,24.87
2022-11-22T05:23:07.073Z,20.83
2022-11-22T05:25:35.237Z,26.53
2022-11-22T05:28:03.430Z,22.23
2022-11-22T05:30:31.557Z,23.77
2022-11-22T05:32:59.646Z,26.47
2022-11-22T05:35:27.774Z,25.63
2022-11-22T05:37:58.845Z,22.83
2022-11-22T05:40:27.743Z,20.83
2022-11-22T05:42:55.874Z,24.30
2022-11-22T05:45:24.081Z,20.07
2022-11-22T05:47:52.258Z,21.13
2022-11-22T05:50:20.398Z,25.90
2022-11-22T05:52:55.561Z,27.23
2022-11-22T05:55:25.005Z,24.77
2022-11-22T05:57:53.131Z,23.23
2022-11-22T06:00:21.541Z,25.27
2022-11-22T06:02:49.662Z,23.30
2022-11-22T06:05:17.847Z,25.67
2022-11-22T06:07:46.819Z,22.27
2022-11-22T06:10:15.178Z,23.00
2022-11-22T06:12:44.733Z,22.37
2022-11-22T06:15:13.002Z,20.13
2022-11-22T06:17:41.089Z,24.13
2022-11-22T06:20:10.542Z,20.27
2022-11-22T06:22:38.771Z,24.20
2022-11-22T06:25:07.942Z,20.50
2022-11-22T06:27:36.168Z,23.80
2022-11-22T06:30:06.465Z,23.57
2022-11-22T06:32:35.274Z,22.13
2022-11-22T06:35:03.643Z,25.73
2022-11-22T06:37:32.039Z,29.13
2022-11-22T06:40:00.163Z,19.90
2022-11-22T06:42:28.381Z,22.37
2022-11-22T06:44:56.495Z,27.63
2022-11-22T06:47:26.067Z,19.67
2022-11-22T06:49:54.203Z,24.33
2022-11-22T06:52:25.026Z,21.07
2022-11-22T06:54:53.159Z,22.67
2022-11-22T06:57:22.158Z,20.27
2022-11-22T06:59:50.300Z,23.17
2022-11-22T07:02:18.414Z,19.77
2022-11-22T07:05:17.298Z,31.97
2022-11-22T07:07:36.936Z,22.17
2022-11-22T07:10:05.672Z,24.13
2022-11-22T07:12:33.730Z,20.37
2022-11-22T07:15:01.932Z,22.67
2022-11-22T07:17:30.007Z,21.23
2022-11-22T07:20:01.816Z,26.10
2022-11-22T07:22:29.913Z,21.77
2022-11-22T07:24:58.048Z,24.17
2022-11-22T07:27:26.165Z,26.60
2022-11-22T07:29:54.292Z,22.90
2022-11-22T07:32:22.459Z,24.00
2022-11-22T07:34:50.571Z,22.10
2022-11-22T07:37:20.030Z,23.40
2022-11-22T07:39:48.183Z,24.10
2022-11-22T07:42:16.313Z,27.33
2022-11-22T07:44:45.018Z,26.17
2022-11-22T07:47:15.270Z,24.40
2022-11-22T07:49:46.601Z,23.70
2022-11-22T07:52:15.361Z,25.87
2022-11-22T07:54:44.839Z,28.10
2022-11-22T07:57:13.076Z,28.93
2022-11-22T07:59:41.274Z,21.80
2022-11-22T08:02:12.308Z,22.43
2022-11-22T08:04:40.472Z,24.23
2022-11-22T08:07:09.369Z,23.03
2022-11-22T08:09:37.674Z,22.00
2022-11-22T08:12:07.682Z,19.77
2022-11-22T08:14:36.131Z,22.40
2022-11-22T08:17:04.344Z,25.10
2022-11-22T08:19:33.431Z,19.13
2022-11-22T08:22:01.570Z,20.73
2022-11-22T08:24:29.728Z,21.97
2022-11-22T08:26:57.823Z,26.87
2022-11-22T08:29:29.299Z,23.70
2022-11-22T08:31:57.603Z,22.30
2022-11-22T08:34:25.909Z,23.33
2022-11-22T08:36:54.031Z,22.33
2022-11-22T08:39:23.065Z,25.97
2022-11-22T08:41:51.237Z,24.87
2022-11-22T08:44:19.383Z,29.20
2022-11-22T08:46:48.853Z,25.57
2022-11-22T08:49:17.034Z,29.67
2022-11-22T08:51:46.714Z,26.70
2022-11-22T08:54:16.220Z,26.77
2022-11-22T08:56:44.342Z,26.67
2022-11-22T08:59:12.667Z,25.47
2022-11-22T09:01:40.808Z,26.87
2022-11-22T09:04:10.716Z,29.30
2022-11-22T09:09:37.250Z,31.87
2022-11-22T09:12:07.726Z,27.33
2022-11-22T09:14:36.143Z,28.10
2022-11-22T09:17:05.779Z,28.23
2022-11-22T09:19:35.407Z,30.70
2022-11-22T09:22:03.544Z,27.37
2022-11-22T09:24:33.119Z,30.80
2022-11-22T09:27:01.277Z,26.97
2022-11-22T09:29:29.765Z,29.53
2022-11-22T09:31:58.050Z,34.30
2022-11-22T09:34:26.159Z,33.10
2022-11-22T09:36:57.936Z,30.10
2022-11-22T09:39:26.089Z,32.07
2022-11-22T09:42:28.885Z,24.97
2022-11-22T09:45:23.811Z,31.57
2022-11-22T09:48:02.046Z,22.43
2022-11-22T09:50:40.880Z,26.20
2022-11-22T09:53:15.222Z,53.93
2022-11-22T09:55:46.708Z,44.53
2022-11-22T09:58:25.629Z,37.43
2022-11-22T10:00:55.571Z,28.87
2022-11-22T10:03:28.580Z,32.37
2022-11-22T10:06:01.080Z,26.50
2022-11-22T10:08:40.549Z,28.70
2022-11-22T10:11:16.027Z,33.17
2022-11-22T10:13:50.960Z,24.97
2022-11-22T10:16:24.225Z,29.57
2022-11-22T10:18:57.746Z,29.47
2022-11-22T10:21:27.364Z,31.60
2022-11-22T10:23:56.992Z,32.27
2022-11-22T10:26:28.340Z,29.20
2022-11-22T10:29:06.504Z,30.40
2022-11-22T10:31:40.228Z,25.63
2022-11-22T10:34:17.646Z,27.90
2022-11-22T10:36:49.919Z,31.90
2022-11-22T10:39:34.251Z,28.80
2022-11-22T10:42:27.071Z,30.13
2022-11-22T10:45:05.458Z,32.43
2022-11-22T10:47:46.614Z,29.73
2022-11-22T10:50:21.499Z,31.30
2022-11-22T10:52:59.393Z,29.30
2022-11-22T10:55:43.578Z,28.00
2022-11-22T10:58:22.309Z,31.90
2022-11-22T11:00:53.999Z,30.30
2022-11-22T11:03:27.768Z,28.13
2022-11-22T11:06:21.740Z,29.63
2022-11-22T11:09:36.635Z,28.50
2022-11-22T11:11:46.247Z,29.50
2022-11-22T11:14:25.606Z,27.90
2022-11-22T11:16:54.966Z,30.40
2022-11-22T11:19:25.508Z,35.10
2022-11-22T11:22:00.784Z,33.60
2022-11-22T11:24:31.728Z,29.10
2022-11-22T11:27:01.877Z,26.00
2022-11-22T11:29:46.139Z,32.87
2022-11-22T11:32:16.595Z,29.20
2022-11-22T11:35:02.400Z,32.13
2022-11-22T11:37:37.797Z,28.77
2022-11-22T11:40:07.973Z,26.40
2022-11-22T11:42:37.477Z,30.67
2022-11-22T11:45:29.250Z,27.73
2022-11-22T11:47:57.406Z,30.43
2022-11-22T11:50:27.735Z,30.83
2022-11-22T11:52:58.058Z,30.53
2022-11-22T11:55:31.257Z,31.73
2022-11-22T11:58:02.483Z,30.40
2022-11-22T12:00:40.891Z,27.00
2022-11-22T12:03:13.275Z,28.83
2022-11-22T12:05:41.677Z,34.73
2022-11-22T12:08:30.051Z,27.70
2022-11-22T12:11:03.904Z,29.33
2022-11-22T12:13:57.710Z,28.77
2022-11-22T12:16:30.185Z,30.03
2022-11-22T12:19:05.479Z,30.00
2022-11-22T12:21:46.253Z,26.80
2022-11-22T12:24:43.120Z,28.03
2022-11-22T12:27:12.413Z,29.80
2022-11-22T12:29:44.507Z,30.40
2022-11-22T12:32:18.865Z,30.33
2022-11-22T12:34:54.093Z,28.47
2022-11-22T12:37:27.771Z,28.70
2022-11-22T12:39:59.609Z,28.53
2022-11-22T12:42:33.019Z,28.50
2022-11-22T12:45:07.443Z,27.67
2022-11-22T12:47:40.879Z,28.37
2022-11-22T12:50:16.383Z,23.53
2022-11-22T12:52:48.858Z,27.83
2022-11-22T12:55:21.410Z,27.27
2022-11-22T12:57:55.916Z,28.77
2022-11-22T13:00:28.043Z,29.10
2022-11-22T13:03:03.278Z,33.80
2022-11-22T13:05:35.173Z,30.27
2022-11-22T13:08:15.140Z,30.37
2022-11-22T13:10:46.435Z,28.80
2022-11-22T13:13:22.514Z,28.83
2022-11-22T13:15:55.067Z,29.73
2022-11-22T13:18:26.767Z,27.27
2022-11-22T13:21:04.129Z,30.17
2022-11-22T13:23:49.990Z,26.23
2022-11-22T13:26:25.013Z,29.90
2022-11-22T13:28:53.493Z,27.57
2022-11-22T13:31:23.059Z,26.67
2022-11-22T13:33:56.853Z,27.40
2022-11-22T13:36:46.267Z,25.80
2022-11-22T13:39:20.064Z,28.43
2022-11-22T13:42:04.173Z,28.93
2022-11-22T13:44:39.358Z,32.23
2022-11-22T13:47:40.177Z,30.60
2022-11-22T13:50:55.130Z,24.40
2022-11-22T13:53:33.548Z,29.20
2022-11-22T13:56:41.459Z,29.90
2022-11-22T13:59:15.964Z,30.53
2022-11-22T14:01:59.921Z,25.87
2022-11-22T14:04:41.653Z,28.73
2022-11-22T14:07:35.197Z,27.63
2022-11-22T14:10:24.827Z,27.40
2022-11-22T14:13:18.436Z,30.00
2022-11-22T14:16:14.883Z,29.40
2022-11-22T14:18:54.614Z,28.70
2022-11-22T14:21:53.957Z,25.20
2022-11-22T14:24:36.101Z,31.00
2022-11-22T14:27:18.632Z,29.47
2022-11-22T14:30:05.742Z,26.23
2022-11-22T14:32:50.615Z,29.50
2022-11-22T14:35:30.068Z,27.00
2022-11-22T14:38:03.983Z,29.43
2022-11-22T14:40:38.714Z,29.17
2022-11-22T14:43:23.386Z,35.10
2022-11-22T14:45:54.163Z,36.97
2022-11-22T14:48:25.391Z,27.80
2022-11-22T14:51:00.681Z,30.50
2022-11-22T14:53:34.546Z,32.57
2022-11-22T14:56:09.045Z,26.63
2022-11-22T14:58:43.089Z,30.97
2022-11-22T15:01:45.212Z,30.73
2022-11-22T15:09:12.526Z,24.63
2022-11-22T15:09:19.926Z,30.23
2022-11-22T15:11:18.104Z,32.47
2022-11-22T15:14:11.567Z,34.00
2022-11-22T15:59:42.940Z,29.87
2022-11-22T16:02:15.914Z,28.33
2022-11-22T16:06:10.013Z,31.50
2022-11-22T16:07:43.279Z,32.77
2022-11-22T16:10:20.594Z,30.73
2022-11-22T16:12:49.116Z,34.13
2022-11-22T16:15:27.690Z,33.60
2022-11-22T16:18:06.596Z,43.03
2022-11-22T16:20:37.300Z,34.57
2022-11-22T16:23:19.753Z,33.70
2022-11-22T16:25:50.678Z,30.43
2022-11-22T16:28:28.810Z,34.20
2022-11-22T16:30:58.732Z,33.30
2022-11-22T16:33:27.094Z,27.67
2022-11-22T16:35:58.120Z,29.57
2022-11-22T16:38:27.208Z,29.27
2022-11-22T16:40:57.842Z,33.57
2022-11-22T16:43:27.788Z,30.40
2022-11-22T16:45:56.120Z,31.43
2022-11-22T16:48:33.634Z,33.30
2022-11-22T16:51:06.214Z,35.27
2022-11-22T16:53:44.043Z,29.40
2022-11-22T16:56:19.333Z,31.40
2022-11-22T16:58:47.885Z,28.63
2022-11-22T17:01:17.754Z,39.47
2022-11-22T17:03:48.075Z,32.80
2022-11-22T17:06:22.156Z,32.67
2022-11-22T17:08:52.901Z,34.03
2022-11-22T17:11:22.625Z,29.13
2022-11-22T17:13:51.273Z,31.53
2022-11-22T17:16:19.576Z,32.17
2022-11-22T17:18:48.550Z,36.47
2022-11-22T17:21:26.056Z,27.37
2022-11-22T17:23:55.932Z,31.33
2022-11-22T17:26:24.670Z,29.83
2022-11-22T17:28:53.171Z,38.80
2022-11-22T17:31:23.217Z,33.63
2022-11-22T17:33:52.270Z,30.13
2022-11-22T17:36:27.700Z,31.70
2022-11-22T17:38:55.899Z,36.17
2022-11-22T17:41:24.670Z,31.50
2022-11-22T17:43:55.703Z,32.67
2022-11-22T17:46:23.898Z,34.27
2022-11-22T17:48:53.807Z,31.20
2022-11-22T17:51:23.661Z,30.83
2022-11-22T17:53:51.889Z,29.23
2022-11-22T17:56:20.254Z,31.57
2022-11-22T17:58:48.710Z,30.80
2022-11-22T18:01:18.504Z,32.63
2022-11-22T18:03:48.057Z,31.83
2022-11-22T18:06:17.766Z,31.87
2022-11-22T18:08:47.640Z,32.40
2022-11-22T18:11:16.296Z,33.77
2022-11-22T18:13:44.919Z,33.97
2022-11-22T18:16:15.665Z,27.60
2022-11-22T18:18:59.729Z,32.00
2022-11-22T18:21:29.204Z,37.67
2022-11-22T18:24:00.110Z,38.03
2022-11-22T18:26:43.970Z,34.60
2022-11-22T18:32:02.625Z,32.13
2022-11-22T18:34:31.347Z,33.50
2022-11-22T18:37:02.669Z,57.73
2022-11-22T18:39:36.042Z,32.33
2022-11-22T18:42:05.057Z,30.13
2022-11-22T18:44:33.404Z,34.10
2022-11-22T18:47:01.682Z,40.40
2022-11-22T18:49:30.648Z,32.97
2022-11-22T18:51:59.161Z,28.47
2022-11-22T18:54:27.350Z,33.07
2022-11-22T18:56:56.822Z,35.33
2022-11-22T18:59:25.048Z,35.67
2022-11-22T19:01:53.223Z,30.17
2022-11-22T19:04:21.544Z,29.67
2022-11-22T19:06:49.710Z,37.73
2022-11-22T19:09:17.919Z,31.90
2022-11-22T19:11:46.077Z,39.00
2022-11-22T19:14:15.664Z,32.23
2022-11-22T19:16:43.792Z,38.90
2022-11-22T19:19:12.792Z,33.43
2022-11-22T19:21:41.002Z,31.83
2022-11-22T19:24:09.472Z,40.90
2022-11-22T19:26:37.558Z,31.63
2022-11-22T19:29:05.674Z,40.40
2022-11-22T19:31:36.575Z,34.37
2022-11-22T19:34:04.739Z,33.30
2022-11-22T19:36:34.282Z,31.97
2022-11-22T19:39:03.666Z,37.67
2022-11-22T19:41:32.154Z,31.40
2022-11-22T19:44:00.843Z,35.83
2022-11-22T19:46:29.222Z,37.87
2022-11-22T19:49:01.012Z,33.00
2022-11-22T19:51:31.074Z,36.43
2022-11-22T19:54:01.950Z,32.30
2022-11-22T19:56:31.558Z,32.13
2022-11-22T19:59:01.399Z,36.13
2022-11-22T20:01:31.996Z,39.33
2022-11-22T20:04:03.322Z,34.43
2022-11-22T20:06:32.857Z,30.53
2022-11-22T20:09:02.037Z,34.57
2022-11-22T20:11:30.307Z,35.03
2022-11-22T20:13:58.508Z,35.13
2022-11-22T20:16:28.646Z,33.87
2022-11-22T20:18:57.870Z,34.83
2022-11-22T20:21:28.916Z,29.63
2022-11-22T20:23:57.124Z,33.50
2022-11-22T20:26:25.878Z,26.17
2022-11-22T20:28:58.858Z,29.73
2022-11-22T20:31:28.911Z,32.33
2022-11-22T20:33:57.150Z,33.90
2022-11-22T20:36:28.357Z,33.27
2022-11-22T20:38:57.991Z,33.10
2022-11-22T20:41:27.617Z,29.13
2022-11-22T20:43:55.785Z,34.03
2022-11-22T20:46:25.740Z,28.93
2022-11-22T20:48:54.544Z,35.83
2022-11-22T20:51:24.225Z,38.13
2022-11-22T20:53:54.323Z,38.27
2022-11-22T20:56:22.509Z,36.83
2022-11-22T20:58:50.861Z,32.97
2022-11-22T21:01:21.297Z,33.60
2022-11-22T21:03:50.191Z,35.67
2022-11-22T21:06:20.616Z,27.80
2022-11-22T21:08:48.987Z,30.07
2022-11-22T21:11:20.363Z,29.97
2022-11-22T21:13:48.811Z,32.33
2022-11-22T21:16:25.480Z,29.53
2022-11-22T21:18:54.578Z,32.90
2022-11-22T21:21:26.036Z,34.40
2022-11-22T21:23:55.728Z,33.93
2022-11-22T21:26:26.479Z,36.77
2022-11-22T21:28:55.216Z,27.20
2022-11-22T21:31:24.192Z,35.10
2022-11-22T21:33:52.914Z,34.57
2022-11-22T21:36:22.062Z,35.87
2022-11-22T21:38:50.498Z,36.17
2022-11-22T21:41:39.200Z,33.00
2022-11-22T21:44:09.561Z,31.43
2022-11-22T21:46:37.712Z,31.33
2022-11-22T21:49:05.890Z,38.13
2022-11-22T21:51:34.095Z,34.47
2022-11-22T21:54:03.192Z,31.97
2022-11-22T21:56:31.808Z,33.60
2022-11-22T21:59:00.350Z,35.33
2022-11-22T22:01:30.087Z,35.47
2022-11-22T22:03:58.380Z,32.43
2022-11-22T22:06:26.624Z,30.93
2022-11-22T22:08:55.153Z,31.33
2022-11-22T22:11:23.411Z,35.23
2022-11-22T22:13:53.426Z,37.43
2022-11-22T22:16:23.701Z,41.63
2022-11-22T22:18:53.970Z,34.33
2022-11-22T22:21:22.241Z,40.83
2022-11-22T22:23:50.421Z,34.40
2022-11-22T22:26:18.916Z,33.63
2022-11-22T22:28:47.277Z,32.93
2022-11-22T22:31:21.220Z,37.23
2022-11-22T22:33:50.595Z,38.93
2022-11-22T22:36:20.212Z,32.23
2022-11-22T22:38:48.420Z,35.43
2022-11-22T22:41:16.923Z,34.43
2022-11-22T22:43:46.851Z,36.23
2022-11-22T22:46:16.882Z,36.77
2022-11-22T22:48:45.606Z,39.97
2022-11-22T22:51:15.431Z,35.03
2022-11-22T22:53:45.466Z,38.37
2022-11-22T22:56:14.866Z,36.83
2022-11-22T22:58:43.178Z,34.50
2022-11-22T23:01:14.662Z,33.93
2022-11-22T23:03:43.035Z,39.13
2022-11-22T23:06:12.611Z,35.80
2022-11-22T23:08:41.038Z,36.50
2022-11-22T23:11:11.855Z,35.47
2022-11-22T23:13:42.275Z,34.40
2022-11-22T23:16:12.355Z,31.37
2022-11-22T23:18:43.285Z,32.60
2022-11-22T23:21:13.317Z,36.80
2022-11-22T23:23:41.428Z,40.43
2022-11-22T23:26:13.067Z,37.80
2022-11-22T23:28:41.241Z,41.83
2022-11-22T23:31:10.731Z,38.17
2022-11-22T23:33:39.033Z,33.07
2022-11-22T23:38:57.953Z,32.57
2022-11-22T23:41:27.494Z,38.00
2022-11-22T23:43:56.935Z,36.93
2022-11-22T23:46:27.912Z,31.53
2022-11-22T23:48:57.894Z,37.03
2022-11-22T23:51:26.980Z,31.50
2022-11-22T23:53:56.137Z,36.40
2022-11-22T23:56:24.590Z,36.67
2022-11-22T23:58:54.550Z,35.13
